sensor_id;sensor_type;location;lat;lon;timestamp;P1;durP1;ratioP1;P2;durP2;ratioP2
9108;SDS011;4590;51.462;6.692;2023-03-31T00:02:00;8.00;;;1.38;;
9108;SDS011;4590;51.462;6.692;2023-03-31T00:04:37;6.60;;;1.48;;
9108;SDS011;4590;51.462;6.692;2023-03-31T00:07:04;4.43;;;1.33;;
9108;SDS011;4590;51.462;6.692;2023-03-31T00:09:30;4.13;;;1.25;;
9108;SDS011;4590;51.462;6.692;2023-03-31T00:11:57;3.80;;;0.95;;
9108;SDS011;4590;51.462;6.692;2023-03-31T00:14:22;3.03;;;1.30;;
9108;SDS011;4590;51.462;6.692;2023-03-31T00:16:48;2.87;;;1.03;;
9108;SDS011;4590;51.462;6.692;2023-03-31T00:19:13;3.60;;;1.33;;
9108;SDS011;4590;51.462;6.692;2023-03-31T00:21:46;2.97;;;0.88;;
9108;SDS011;4590;51.462;6.692;2023-03-31T00:24:12;1.70;;;0.82;;
9108;SDS011;4590;51.462;6.692;2023-03-31T00:26:38;5.65;;;1.23;;
9108;SDS011;4590;51.462;6.692;2023-03-31T00:29:04;4.37;;;1.40;;
9108;SDS011;4590;51.462;6.692;2023-03-31T00:31:31;5.00;;;1.40;;
9108;SDS011;4590;51.462;6.692;2023-03-31T00:33:56;2.83;;;0.90;;
9108;SDS011;4590;51.462;6.692;2023-03-31T00:36:22;3.33;;;0.90;;
9108;SDS011;4590;51.462;6.692;2023-03-31T00:38:57;4.65;;;1.23;;
9108;SDS011;4590;51.462;6.692;2023-03-31T00:41:25;4.38;;;1.05;;
9108;SDS011;4590;51.462;6.692;2023-03-31T00:49:41;5.22;;;1.00;;
9108;SDS011;4590;51.462;6.692;2023-03-31T00:52:16;2.92;;;0.68;;
9108;SDS011;4590;51.462;6.692;2023-03-31T00:54:47;4.25;;;0.90;;
9108;SDS011;4590;51.462;6.692;2023-03-31T00:57:26;4.82;;;1.10;;
9108;SDS011;4590;51.462;6.692;2023-03-31T00:59:55;4.05;;;0.90;;
9108;SDS011;4590;51.462;6.692;2023-03-31T01:02:26;3.28;;;1.00;;
9108;SDS011;4590;51.462;6.692;2023-03-31T01:04:54;3.13;;;0.90;;
9108;SDS011;4590;51.462;6.692;2023-03-31T01:07:25;3.83;;;1.10;;
9108;SDS011;4590;51.462;6.692;2023-03-31T01:09:57;5.82;;;1.25;;
9108;SDS011;4590;51.462;6.692;2023-03-31T01:12:25;3.45;;;1.13;;
9108;SDS011;4590;51.462;6.692;2023-03-31T01:14:51;4.13;;;1.02;;
9108;SDS011;4590;51.462;6.692;2023-03-31T01:17:17;5.50;;;0.93;;
9108;SDS011;4590;51.462;6.692;2023-03-31T01:31:06;4.93;;;1.33;;
9108;SDS011;4590;51.462;6.692;2023-03-31T01:41:26;4.05;;;1.15;;
9108;SDS011;4590;51.462;6.692;2023-03-31T01:46:51;3.63;;;0.80;;
9108;SDS011;4590;51.462;6.692;2023-03-31T01:52:02;2.10;;;1.00;;
9108;SDS011;4590;51.462;6.692;2023-03-31T01:54:36;3.30;;;0.82;;
9108;SDS011;4590;51.462;6.692;2023-03-31T01:57:11;2.90;;;1.00;;
9108;SDS011;4590;51.462;6.692;2023-03-31T02:02:30;4.55;;;1.23;;
9108;SDS011;4590;51.462;6.692;2023-03-31T02:05:08;4.50;;;1.05;;
9108;SDS011;4590;51.462;6.692;2023-03-31T02:07:37;4.35;;;1.00;;
9108;SDS011;4590;51.462;6.692;2023-03-31T02:10:10;4.78;;;1.40;;
9108;SDS011;4590;51.462;6.692;2023-03-31T02:12:37;6.45;;;1.55;;
9108;SDS011;4590;51.462;6.692;2023-03-31T02:15:05;5.75;;;1.80;;
9108;SDS011;4590;51.462;6.692;2023-03-31T02:17:34;4.03;;;1.20;;
9108;SDS011;4590;51.462;6.692;2023-03-31T02:20:04;3.85;;;1.30;;
9108;SDS011;4590;51.462;6.692;2023-03-31T02:22:35;8.13;;;1.80;;
9108;SDS011;4590;51.462;6.692;2023-03-31T02:25:03;6.90;;;1.50;;
9108;SDS011;4590;51.462;6.692;2023-03-31T02:27:39;4.53;;;1.40;;
9108;SDS011;4590;51.462;6.692;2023-03-31T02:30:08;6.30;;;1.38;;
9108;SDS011;4590;51.462;6.692;2023-03-31T02:32:36;6.03;;;1.60;;
9108;SDS011;4590;51.462;6.692;2023-03-31T02:35:04;4.60;;;1.30;;
9108;SDS011;4590;51.462;6.692;2023-03-31T02:37:31;5.32;;;1.60;;
9108;SDS011;4590;51.462;6.692;2023-03-31T02:39:58;4.60;;;1.60;;
9108;SDS011;4590;51.462;6.692;2023-03-31T02:42:25;6.43;;;2.00;;
9108;SDS011;4590;51.462;6.692;2023-03-31T02:44:51;7.20;;;1.70;;
9108;SDS011;4590;51.462;6.692;2023-03-31T02:47:17;9.25;;;2.00;;
9108;SDS011;4590;51.462;6.692;2023-03-31T02:49:45;5.95;;;1.88;;
9108;SDS011;4590;51.462;6.692;2023-03-31T02:52:29;6.80;;;1.80;;
9108;SDS011;4590;51.462;6.692;2023-03-31T02:58:23;7.10;;;1.58;;
9108;SDS011;4590;51.462;6.692;2023-03-31T03:01:14;7.13;;;1.38;;
9108;SDS011;4590;51.462;6.692;2023-03-31T03:03:58;7.50;;;1.80;;
9108;SDS011;4590;51.462;6.692;2023-03-31T03:11:45;5.25;;;1.63;;
9108;SDS011;4590;51.462;6.692;2023-03-31T03:14:31;6.03;;;1.50;;
9108;SDS011;4590;51.462;6.692;2023-03-31T03:17:12;8.38;;;1.42;;
9108;SDS011;4590;51.462;6.692;2023-03-31T03:19:42;4.70;;;1.70;;
9108;SDS011;4590;51.462;6.692;2023-03-31T03:22:08;8.03;;;1.47;;
9108;SDS011;4590;51.462;6.692;2023-03-31T03:24:33;4.73;;;1.43;;
9108;SDS011;4590;51.462;6.692;2023-03-31T03:26:58;8.97;;;1.47;;
9108;SDS011;4590;51.462;6.692;2023-03-31T03:29:25;6.07;;;1.50;;
9108;SDS011;4590;51.462;6.692;2023-03-31T03:31:51;7.30;;;1.75;;
9108;SDS011;4590;51.462;6.692;2023-03-31T03:34:17;6.47;;;1.83;;
9108;SDS011;4590;51.462;6.692;2023-03-31T03:36:44;4.78;;;1.40;;
9108;SDS011;4590;51.462;6.692;2023-03-31T03:39:09;9.18;;;1.63;;
9108;SDS011;4590;51.462;6.692;2023-03-31T03:41:35;9.13;;;1.70;;
9108;SDS011;4590;51.462;6.692;2023-03-31T03:44:00;5.75;;;1.77;;
9108;SDS011;4590;51.462;6.692;2023-03-31T03:46:26;5.43;;;1.87;;
9108;SDS011;4590;51.462;6.692;2023-03-31T03:48:51;6.32;;;1.60;;
9108;SDS011;4590;51.462;6.692;2023-03-31T03:51:17;7.22;;;2.15;;
9108;SDS011;4590;51.462;6.692;2023-03-31T03:53:42;9.77;;;2.73;;
9108;SDS011;4590;51.462;6.692;2023-03-31T03:56:07;7.30;;;2.07;;
9108;SDS011;4590;51.462;6.692;2023-03-31T03:58:33;5.90;;;1.77;;
9108;SDS011;4590;51.462;6.692;2023-03-31T04:00:58;6.45;;;1.80;;
9108;SDS011;4590;51.462;6.692;2023-03-31T04:03:23;10.50;;;2.07;;
9108;SDS011;4590;51.462;6.692;2023-03-31T04:05:49;8.30;;;1.80;;
9108;SDS011;4590;51.462;6.692;2023-03-31T04:08:14;10.30;;;2.33;;
9108;SDS011;4590;51.462;6.692;2023-03-31T04:10:43;7.10;;;2.25;;
9108;SDS011;4590;51.462;6.692;2023-03-31T04:13:09;10.82;;;2.10;;
9108;SDS011;4590;51.462;6.692;2023-03-31T04:15:34;6.27;;;1.47;;
9108;SDS011;4590;51.462;6.692;2023-03-31T04:17:59;7.17;;;1.50;;
9108;SDS011;4590;51.462;6.692;2023-03-31T04:20:25;7.70;;;1.70;;
9108;SDS011;4590;51.462;6.692;2023-03-31T04:25:16;7.20;;;1.70;;
9108;SDS011;4590;51.462;6.692;2023-03-31T04:27:46;7.80;;;1.90;;
9108;SDS011;4590;51.462;6.692;2023-03-31T04:30:18;11.95;;;2.38;;
9108;SDS011;4590;51.462;6.692;2023-03-31T04:32:51;9.23;;;2.67;;
9108;SDS011;4590;51.462;6.692;2023-03-31T04:35:20;8.95;;;2.30;;
9108;SDS011;4590;51.462;6.692;2023-03-31T04:37:47;7.30;;;1.60;;
9108;SDS011;4590;51.462;6.692;2023-03-31T04:40:12;6.65;;;1.58;;
9108;SDS011;4590;51.462;6.692;2023-03-31T04:42:38;6.53;;;1.70;;
9108;SDS011;4590;51.462;6.692;2023-03-31T04:45:03;7.07;;;2.10;;
9108;SDS011;4590;51.462;6.692;2023-03-31T04:47:29;6.32;;;1.52;;
9108;SDS011;4590;51.462;6.692;2023-03-31T04:49:54;9.60;;;2.40;;
9108;SDS011;4590;51.462;6.692;2023-03-31T04:52:20;5.37;;;1.53;;
9108;SDS011;4590;51.462;6.692;2023-03-31T04:54:45;7.90;;;2.53;;
9108;SDS011;4590;51.462;6.692;2023-03-31T04:57:10;9.47;;;2.60;;
9108;SDS011;4590;51.462;6.692;2023-03-31T04:59:36;7.17;;;2.33;;
9108;SDS011;4590;51.462;6.692;2023-03-31T05:02:01;7.37;;;2.07;;
9108;SDS011;4590;51.462;6.692;2023-03-31T05:04:26;7.17;;;2.10;;
9108;SDS011;4590;51.462;6.692;2023-03-31T05:06:52;7.33;;;2.23;;
9108;SDS011;4590;51.462;6.692;2023-03-31T05:09:17;6.57;;;2.20;;
9108;SDS011;4590;51.462;6.692;2023-03-31T05:11:42;7.97;;;2.17;;
9108;SDS011;4590;51.462;6.692;2023-03-31T05:14:08;6.43;;;2.20;;
9108;SDS011;4590;51.462;6.692;2023-03-31T05:16:33;4.50;;;1.53;;
9108;SDS011;4590;51.462;6.692;2023-03-31T05:18:58;6.40;;;1.80;;
9108;SDS011;4590;51.462;6.692;2023-03-31T05:21:24;4.00;;;1.30;;
9108;SDS011;4590;51.462;6.692;2023-03-31T05:26:16;6.47;;;2.13;;
9108;SDS011;4590;51.462;6.692;2023-03-31T05:28:41;4.33;;;1.50;;
9108;SDS011;4590;51.462;6.692;2023-03-31T05:31:07;6.80;;;2.10;;
9108;SDS011;4590;51.462;6.692;2023-03-31T05:33:34;6.53;;;1.77;;
9108;SDS011;4590;51.462;6.692;2023-03-31T05:36:04;5.25;;;1.65;;
9108;SDS011;4590;51.462;6.692;2023-03-31T05:38:29;4.13;;;1.52;;
9108;SDS011;4590;51.462;6.692;2023-03-31T05:40:55;4.95;;;1.50;;
9108;SDS011;4590;51.462;6.692;2023-03-31T05:43:21;4.70;;;1.35;;
9108;SDS011;4590;51.462;6.692;2023-03-31T05:45:46;5.07;;;1.53;;
9108;SDS011;4590;51.462;6.692;2023-03-31T05:48:12;4.30;;;1.90;;
9108;SDS011;4590;51.462;6.692;2023-03-31T05:50:37;3.67;;;1.77;;
9108;SDS011;4590;51.462;6.692;2023-03-31T05:53:02;9.47;;;2.87;;
9108;SDS011;4590;51.462;6.692;2023-03-31T05:55:28;6.53;;;3.17;;
9108;SDS011;4590;51.462;6.692;2023-03-31T05:57:53;8.60;;;2.80;;
9108;SDS011;4590;51.462;6.692;2023-03-31T06:00:18;9.73;;;2.73;;
9108;SDS011;4590;51.462;6.692;2023-03-31T06:02:44;6.32;;;1.90;;
9108;SDS011;4590;51.462;6.692;2023-03-31T06:05:09;6.30;;;1.90;;
9108;SDS011;4590;51.462;6.692;2023-03-31T06:07:35;5.00;;;1.43;;
9108;SDS011;4590;51.462;6.692;2023-03-31T06:10:00;4.47;;;2.03;;
9108;SDS011;4590;51.462;6.692;2023-03-31T06:12:25;4.90;;;1.40;;
9108;SDS011;4590;51.462;6.692;2023-03-31T06:14:51;2.77;;;1.10;;
9108;SDS011;4590;51.462;6.692;2023-03-31T06:17:16;3.37;;;0.90;;
9108;SDS011;4590;51.462;6.692;2023-03-31T06:19:41;3.73;;;1.20;;
9108;SDS011;4590;51.462;6.692;2023-03-31T06:22:07;4.27;;;1.03;;
9108;SDS011;4590;51.462;6.692;2023-03-31T06:24:32;3.30;;;0.80;;
9108;SDS011;4590;51.462;6.692;2023-03-31T06:26:57;5.87;;;1.80;;
9108;SDS011;4590;51.462;6.692;2023-03-31T06:29:24;3.70;;;1.30;;
9108;SDS011;4590;51.462;6.692;2023-03-31T06:31:51;5.03;;;1.30;;
9108;SDS011;4590;51.462;6.692;2023-03-31T06:34:16;3.67;;;1.17;;
9108;SDS011;4590;51.462;6.692;2023-03-31T06:36:41;5.17;;;1.40;;
9108;SDS011;4590;51.462;6.692;2023-03-31T06:39:07;4.70;;;2.00;;
9108;SDS011;4590;51.462;6.692;2023-03-31T06:41:32;4.33;;;1.10;;
9108;SDS011;4590;51.462;6.692;2023-03-31T06:43:57;3.47;;;1.10;;
9108;SDS011;4590;51.462;6.692;2023-03-31T06:46:22;3.43;;;1.23;;
9108;SDS011;4590;51.462;6.692;2023-03-31T06:48:48;4.57;;;1.40;;
9108;SDS011;4590;51.462;6.692;2023-03-31T06:51:13;3.60;;;1.30;;
9108;SDS011;4590;51.462;6.692;2023-03-31T06:53:38;5.15;;;1.40;;
9108;SDS011;4590;51.462;6.692;2023-03-31T06:56:06;4.33;;;1.40;;
9108;SDS011;4590;51.462;6.692;2023-03-31T06:58:32;3.97;;;1.67;;
9108;SDS011;4590;51.462;6.692;2023-03-31T07:00:57;4.60;;;1.60;;
9108;SDS011;4590;51.462;6.692;2023-03-31T07:03:25;5.00;;;1.55;;
9108;SDS011;4590;51.462;6.692;2023-03-31T07:08:42;7.18;;;1.92;;
9108;SDS011;4590;51.462;6.692;2023-03-31T07:11:07;6.33;;;2.17;;
9108;SDS011;4590;51.462;6.692;2023-03-31T07:13:33;7.37;;;2.20;;
9108;SDS011;4590;51.462;6.692;2023-03-31T07:16:01;6.57;;;1.93;;
9108;SDS011;4590;51.462;6.692;2023-03-31T07:18:28;8.45;;;2.45;;
9108;SDS011;4590;51.462;6.692;2023-03-31T07:20:56;5.65;;;2.05;;
9108;SDS011;4590;51.462;6.692;2023-03-31T07:23:22;6.07;;;1.92;;
9108;SDS011;4590;51.462;6.692;2023-03-31T07:25:48;4.88;;;1.58;;
9108;SDS011;4590;51.462;6.692;2023-03-31T07:28:20;6.00;;;2.10;;
9108;SDS011;4590;51.462;6.692;2023-03-31T07:30:45;6.35;;;1.50;;
9108;SDS011;4590;51.462;6.692;2023-03-31T07:33:10;5.13;;;1.80;;
9108;SDS011;4590;51.462;6.692;2023-03-31T07:35:41;5.63;;;1.80;;
9108;SDS011;4590;51.462;6.692;2023-03-31T07:38:07;3.55;;;1.83;;
9108;SDS011;4590;51.462;6.692;2023-03-31T07:40:34;3.92;;;1.48;;
9108;SDS011;4590;51.462;6.692;2023-03-31T07:43:08;3.50;;;1.63;;
9108;SDS011;4590;51.462;6.692;2023-03-31T07:45:34;5.03;;;1.70;;
9108;SDS011;4590;51.462;6.692;2023-03-31T07:47:59;3.95;;;2.10;;
9108;SDS011;4590;51.462;6.692;2023-03-31T07:50:25;5.10;;;1.40;;
9108;SDS011;4590;51.462;6.692;2023-03-31T07:52:50;6.07;;;1.37;;
9108;SDS011;4590;51.462;6.692;2023-03-31T07:55:31;7.35;;;2.00;;
9108;SDS011;4590;51.462;6.692;2023-03-31T07:57:57;7.85;;;2.10;;
9108;SDS011;4590;51.462;6.692;2023-03-31T08:00:22;5.30;;;2.20;;
9108;SDS011;4590;51.462;6.692;2023-03-31T08:02:48;5.30;;;1.92;;
9108;SDS011;4590;51.462;6.692;2023-03-31T08:05:14;6.33;;;1.77;;
9108;SDS011;4590;51.462;6.692;2023-03-31T08:07:50;6.13;;;1.75;;
9108;SDS011;4590;51.462;6.692;2023-03-31T08:10:17;4.93;;;1.50;;
9108;SDS011;4590;51.462;6.692;2023-03-31T08:12:45;3.40;;;1.52;;
9108;SDS011;4590;51.462;6.692;2023-03-31T08:15:24;5.07;;;1.67;;
9108;SDS011;4590;51.462;6.692;2023-03-31T08:17:49;4.05;;;1.38;;
9108;SDS011;4590;51.462;6.692;2023-03-31T08:20:15;5.32;;;1.30;;
9108;SDS011;4590;51.462;6.692;2023-03-31T08:22:40;3.67;;;1.20;;
9108;SDS011;4590;51.462;6.692;2023-03-31T08:25:13;5.17;;;1.33;;
9108;SDS011;4590;51.462;6.692;2023-03-31T08:27:39;4.90;;;1.58;;
9108;SDS011;4590;51.462;6.692;2023-03-31T08:32:44;6.35;;;1.83;;
9108;SDS011;4590;51.462;6.692;2023-03-31T08:35:11;4.53;;;1.48;;
9108;SDS011;4590;51.462;6.692;2023-03-31T08:37:37;8.30;;;1.70;;
9108;SDS011;4590;51.462;6.692;2023-03-31T08:40:03;6.15;;;1.60;;
9108;SDS011;4590;51.462;6.692;2023-03-31T08:49:12;5.80;;;1.80;;
9108;SDS011;4590;51.462;6.692;2023-03-31T08:51:41;8.23;;;1.70;;
9108;SDS011;4590;51.462;6.692;2023-03-31T09:00:25;6.80;;;2.08;;
9108;SDS011;4590;51.462;6.692;2023-03-31T09:02:58;5.97;;;1.75;;
9108;SDS011;4590;51.462;6.692;2023-03-31T09:08:40;6.20;;;1.80;;
9108;SDS011;4590;51.462;6.692;2023-03-31T09:16:21;9.90;;;2.22;;
9108;SDS011;4590;51.462;6.692;2023-03-31T09:21:53;8.00;;;1.92;;
9108;SDS011;4590;51.462;6.692;2023-03-31T09:24:26;7.22;;;2.00;;
9108;SDS011;4590;51.462;6.692;2023-03-31T09:27:02;8.32;;;1.90;;
9108;SDS011;4590;51.462;6.692;2023-03-31T09:42:33;5.40;;;1.67;;
9108;SDS011;4590;51.462;6.692;2023-03-31T09:44:59;8.65;;;1.92;;
9108;SDS011;4590;51.462;6.692;2023-03-31T09:47:30;5.47;;;2.03;;
9108;SDS011;4590;51.462;6.692;2023-03-31T09:50:02;7.75;;;2.22;;
9108;SDS011;4590;51.462;6.692;2023-03-31T09:52:29;12.05;;;1.90;;
9108;SDS011;4590;51.462;6.692;2023-03-31T09:54:57;18.80;;;6.03;;
9108;SDS011;4590;51.462;6.692;2023-03-31T09:57:35;8.43;;;2.13;;
9108;SDS011;4590;51.462;6.692;2023-03-31T10:02:38;7.15;;;1.60;;
9108;SDS011;4590;51.462;6.692;2023-03-31T10:05:17;9.60;;;2.80;;
9108;SDS011;4590;51.462;6.692;2023-03-31T10:07:46;8.35;;;1.80;;
9108;SDS011;4590;51.462;6.692;2023-03-31T10:10:18;7.13;;;1.60;;
9108;SDS011;4590;51.462;6.692;2023-03-31T10:12:56;5.72;;;1.20;;
9108;SDS011;4590;51.462;6.692;2023-03-31T10:18:35;9.27;;;1.73;;
9108;SDS011;4590;51.462;6.692;2023-03-31T10:21:04;5.88;;;1.23;;
9108;SDS011;4590;51.462;6.692;2023-03-31T10:23:32;6.25;;;1.83;;
9108;SDS011;4590;51.462;6.692;2023-03-31T10:25:59;10.82;;;1.83;;
9108;SDS011;4590;51.462;6.692;2023-03-31T10:28:26;8.65;;;1.70;;
9108;SDS011;4590;51.462;6.692;2023-03-31T10:30:57;11.63;;;1.95;;
9108;SDS011;4590;51.462;6.692;2023-03-31T10:33:28;8.98;;;1.75;;
9108;SDS011;4590;51.462;6.692;2023-03-31T10:35:59;7.32;;;1.45;;
9108;SDS011;4590;51.462;6.692;2023-03-31T10:38:33;8.02;;;1.90;;
9108;SDS011;4590;51.462;6.692;2023-03-31T10:41:04;6.57;;;1.45;;
9108;SDS011;4590;51.462;6.692;2023-03-31T10:43:37;11.10;;;2.58;;
9108;SDS011;4590;51.462;6.692;2023-03-31T10:46:05;11.55;;;1.98;;
9108;SDS011;4590;51.462;6.692;2023-03-31T10:48:35;6.43;;;1.92;;
9108;SDS011;4590;51.462;6.692;2023-03-31T10:56:18;6.90;;;1.90;;
9108;SDS011;4590;51.462;6.692;2023-03-31T10:59:04;7.35;;;1.38;;
9108;SDS011;4590;51.462;6.692;2023-03-31T11:01:43;7.88;;;1.38;;
9108;SDS011;4590;51.462;6.692;2023-03-31T11:10:21;4.05;;;1.30;;
9108;SDS011;4590;51.462;6.692;2023-03-31T11:13:10;4.25;;;1.20;;
9108;SDS011;4590;51.462;6.692;2023-03-31T11:16:47;3.83;;;1.25;;
9108;SDS011;4590;51.462;6.692;2023-03-31T11:21:56;3.05;;;0.82;;
9108;SDS011;4590;51.462;6.692;2023-03-31T11:24:38;4.55;;;0.90;;
9108;SDS011;4590;51.462;6.692;2023-03-31T11:30:21;4.07;;;0.75;;
9108;SDS011;4590;51.462;6.692;2023-03-31T11:41:15;3.13;;;0.80;;
9108;SDS011;4590;51.462;6.692;2023-03-31T11:49:01;4.50;;;2.38;;
9108;SDS011;4590;51.462;6.692;2023-03-31T11:51:31;5.28;;;1.63;;
9108;SDS011;4590;51.462;6.692;2023-03-31T11:54:07;5.82;;;3.05;;
9108;SDS011;4590;51.462;6.692;2023-03-31T11:56:45;5.90;;;2.30;;
9108;SDS011;4590;51.462;6.692;2023-03-31T11:59:12;7.07;;;3.00;;
9108;SDS011;4590;51.462;6.692;2023-03-31T12:01:45;6.28;;;2.20;;
9108;SDS011;4590;51.462;6.692;2023-03-31T12:04:32;4.43;;;1.65;;
9108;SDS011;4590;51.462;6.692;2023-03-31T12:07:25;5.07;;;1.30;;
9108;SDS011;4590;51.462;6.692;2023-03-31T12:10:04;4.03;;;1.00;;
9108;SDS011;4590;51.462;6.692;2023-03-31T12:12:44;5.75;;;1.42;;
9108;SDS011;4590;51.462;6.692;2023-03-31T12:17:46;5.53;;;1.30;;
9108;SDS011;4590;51.462;6.692;2023-03-31T12:20:28;5.20;;;1.40;;
9108;SDS011;4590;51.462;6.692;2023-03-31T12:22:59;6.07;;;1.25;;
9108;SDS011;4590;51.462;6.692;2023-03-31T12:25:31;7.68;;;1.48;;
9108;SDS011;4590;51.462;6.692;2023-03-31T12:28:09;4.60;;;1.08;;
9108;SDS011;4590;51.462;6.692;2023-03-31T12:30:36;6.57;;;1.58;;
9108;SDS011;4590;51.462;6.692;2023-03-31T12:36:05;7.35;;;1.40;;
9108;SDS011;4590;51.462;6.692;2023-03-31T12:38:38;6.57;;;2.38;;
9108;SDS011;4590;51.462;6.692;2023-03-31T12:41:23;5.18;;;1.40;;
9108;SDS011;4590;51.462;6.692;2023-03-31T12:52:07;8.32;;;2.28;;
9108;SDS011;4590;51.462;6.692;2023-03-31T12:54:49;7.13;;;1.50;;
9108;SDS011;4590;51.462;6.692;2023-03-31T12:57:26;4.82;;;1.30;;
9108;SDS011;4590;51.462;6.692;2023-03-31T13:02:36;5.68;;;1.27;;
9108;SDS011;4590;51.462;6.692;2023-03-31T13:07:46;4.80;;;1.02;;
9108;SDS011;4590;51.462;6.692;2023-03-31T13:12:55;6.80;;;1.27;;
9108;SDS011;4590;51.462;6.692;2023-03-31T13:15:24;4.80;;;1.02;;
9108;SDS011;4590;51.462;6.692;2023-03-31T13:18:14;5.30;;;1.30;;
9108;SDS011;4590;51.462;6.692;2023-03-31T13:20:43;4.82;;;1.10;;
9108;SDS011;4590;51.462;6.692;2023-03-31T13:25:40;4.77;;;1.50;;
9108;SDS011;4590;51.462;6.692;2023-03-31T13:33:03;6.38;;;1.85;;
9108;SDS011;4590;51.462;6.692;2023-03-31T13:35:34;8.98;;;1.73;;
9108;SDS011;4590;51.462;6.692;2023-03-31T13:43:54;5.00;;;1.30;;
9108;SDS011;4590;51.462;6.692;2023-03-31T13:47:03;4.68;;;1.30;;
9108;SDS011;4590;51.462;6.692;2023-03-31T14:01:30;4.95;;;1.48;;
9108;SDS011;4590;51.462;6.692;2023-03-31T14:09:56;7.25;;;2.70;;
9108;SDS011;4590;51.462;6.692;2023-03-31T14:12:30;14.18;;;5.53;;
9108;SDS011;4590;51.462;6.692;2023-03-31T14:14:58;18.27;;;7.20;;
9108;SDS011;4590;51.462;6.692;2023-03-31T14:17:27;10.77;;;4.47;;
9108;SDS011;4590;51.462;6.692;2023-03-31T14:22:57;12.95;;;5.60;;
9108;SDS011;4590;51.462;6.692;2023-03-31T14:25:35;11.02;;;5.65;;
9108;SDS011;4590;51.462;6.692;2023-03-31T14:36:58;6.47;;;1.75;;
9108;SDS011;4590;51.462;6.692;2023-03-31T14:39:26;5.93;;;2.15;;
9108;SDS011;4590;51.462;6.692;2023-03-31T14:42:03;7.22;;;3.10;;
9108;SDS011;4590;51.462;6.692;2023-03-31T14:44:31;8.43;;;3.53;;
9108;SDS011;4590;51.462;6.692;2023-03-31T14:46:57;8.40;;;3.05;;
9108;SDS011;4590;51.462;6.692;2023-03-31T14:49:33;10.27;;;4.30;;
9108;SDS011;4590;51.462;6.692;2023-03-31T14:52:03;6.35;;;3.10;;
9108;SDS011;4590;51.462;6.692;2023-03-31T14:54:37;8.20;;;2.85;;
9108;SDS011;4590;51.462;6.692;2023-03-31T14:57:23;5.37;;;2.03;;
9108;SDS011;4590;51.462;6.692;2023-03-31T15:02:31;6.47;;;2.30;;
9108;SDS011;4590;51.462;6.692;2023-03-31T15:05:00;5.50;;;1.88;;
9108;SDS011;4590;51.462;6.692;2023-03-31T15:07:31;4.55;;;1.55;;
9108;SDS011;4590;51.462;6.692;2023-03-31T15:09:58;4.70;;;1.58;;
9108;SDS011;4590;51.462;6.692;2023-03-31T15:12:24;11.75;;;4.03;;
9108;SDS011;4590;51.462;6.692;2023-03-31T15:15:04;9.32;;;3.33;;
9108;SDS011;4590;51.462;6.692;2023-03-31T15:17:35;6.38;;;2.53;;
9108;SDS011;4590;51.462;6.692;2023-03-31T15:20:20;4.05;;;1.42;;
9108;SDS011;4590;51.462;6.692;2023-03-31T15:23:02;5.95;;;1.42;;
9108;SDS011;4590;51.462;6.692;2023-03-31T15:28:26;5.05;;;1.50;;
9108;SDS011;4590;51.462;6.692;2023-03-31T15:30:57;9.27;;;4.25;;
9108;SDS011;4590;51.462;6.692;2023-03-31T15:33:26;5.88;;;2.28;;
9108;SDS011;4590;51.462;6.692;2023-03-31T15:35:56;6.38;;;1.60;;
9108;SDS011;4590;51.462;6.692;2023-03-31T15:38:22;3.33;;;0.90;;
9108;SDS011;4590;51.462;6.692;2023-03-31T15:43:27;6.15;;;2.20;;
9108;SDS011;4590;51.462;6.692;2023-03-31T15:45:55;6.15;;;2.83;;
9108;SDS011;4590;51.462;6.692;2023-03-31T15:58:55;2.67;;;0.88;;
9108;SDS011;4590;51.462;6.692;2023-03-31T16:01:36;3.92;;;1.00;;
9108;SDS011;4590;51.462;6.692;2023-03-31T16:04:07;4.53;;;0.82;;
9108;SDS011;4590;51.462;6.692;2023-03-31T16:06:46;3.40;;;0.98;;
9108;SDS011;4590;51.462;6.692;2023-03-31T16:09:36;3.13;;;1.02;;
9108;SDS011;4590;51.462;6.692;2023-03-31T16:14:57;3.20;;;0.73;;
9108;SDS011;4590;51.462;6.692;2023-03-31T16:17:50;2.92;;;1.00;;
9108;SDS011;4590;51.462;6.692;2023-03-31T16:20:27;2.95;;;0.80;;
9108;SDS011;4590;51.462;6.692;2023-03-31T16:23:11;3.88;;;1.17;;
9108;SDS011;4590;51.462;6.692;2023-03-31T16:25:40;4.57;;;1.52;;
9108;SDS011;4590;51.462;6.692;2023-03-31T16:28:06;5.05;;;1.70;;
9108;SDS011;4590;51.462;6.692;2023-03-31T16:30:43;3.30;;;1.05;;
9108;SDS011;4590;51.462;6.692;2023-03-31T16:33:13;2.40;;;0.90;;
9108;SDS011;4590;51.462;6.692;2023-03-31T16:35:45;2.60;;;0.90;;
9108;SDS011;4590;51.462;6.692;2023-03-31T16:43:39;8.57;;;4.30;;
9108;SDS011;4590;51.462;6.692;2023-03-31T16:46:08;3.75;;;1.88;;
9108;SDS011;4590;51.462;6.692;2023-03-31T16:48:33;4.53;;;2.20;;
9108;SDS011;4590;51.462;6.692;2023-03-31T16:50:59;4.73;;;2.50;;
9108;SDS011;4590;51.462;6.692;2023-03-31T16:53:26;2.97;;;1.10;;
9108;SDS011;4590;51.462;6.692;2023-03-31T16:56:09;3.75;;;1.38;;
9108;SDS011;4590;51.462;6.692;2023-03-31T16:58:36;3.35;;;0.82;;
9108;SDS011;4590;51.462;6.692;2023-03-31T17:01:02;2.40;;;1.00;;
9108;SDS011;4590;51.462;6.692;2023-03-31T17:03:30;2.90;;;1.10;;
9108;SDS011;4590;51.462;6.692;2023-03-31T17:05:56;2.28;;;1.02;;
9108;SDS011;4590;51.462;6.692;2023-03-31T17:08:30;3.42;;;1.15;;
9108;SDS011;4590;51.462;6.692;2023-03-31T17:11:03;2.25;;;1.23;;
9108;SDS011;4590;51.462;6.692;2023-03-31T17:13:31;3.85;;;1.73;;
9108;SDS011;4590;51.462;6.692;2023-03-31T17:15:57;3.00;;;0.98;;
9108;SDS011;4590;51.462;6.692;2023-03-31T17:18:24;2.28;;;0.90;;
9108;SDS011;4590;51.462;6.692;2023-03-31T17:20:50;3.00;;;1.20;;
9108;SDS011;4590;51.462;6.692;2023-03-31T17:23:19;2.95;;;1.00;;
9108;SDS011;4590;51.462;6.692;2023-03-31T17:25:45;4.65;;;1.30;;
9108;SDS011;4590;51.462;6.692;2023-03-31T17:28:15;3.38;;;0.90;;
9108;SDS011;4590;51.462;6.692;2023-03-31T17:30:41;2.30;;;0.85;;
9108;SDS011;4590;51.462;6.692;2023-03-31T17:33:19;3.17;;;1.05;;
9108;SDS011;4590;51.462;6.692;2023-03-31T17:35:46;2.25;;;0.80;;
9108;SDS011;4590;51.462;6.692;2023-03-31T17:38:11;9.33;;;5.33;;
9108;SDS011;4590;51.462;6.692;2023-03-31T17:40:48;5.53;;;2.40;;
9108;SDS011;4590;51.462;6.692;2023-03-31T17:43:13;3.33;;;1.30;;
9108;SDS011;4590;51.462;6.692;2023-03-31T17:45:39;2.97;;;1.10;;
9108;SDS011;4590;51.462;6.692;2023-03-31T17:48:05;2.55;;;1.00;;
9108;SDS011;4590;51.462;6.692;2023-03-31T17:50:30;2.95;;;0.93;;
9108;SDS011;4590;51.462;6.692;2023-03-31T17:52:56;1.60;;;0.82;;
9108;SDS011;4590;51.462;6.692;2023-03-31T17:55:26;2.53;;;1.20;;
9108;SDS011;4590;51.462;6.692;2023-03-31T17:57:51;2.30;;;0.80;;
9108;SDS011;4590;51.462;6.692;2023-03-31T18:00:16;4.07;;;1.23;;
9108;SDS011;4590;51.462;6.692;2023-03-31T18:02:43;4.60;;;1.92;;
9108;SDS011;4590;51.462;6.692;2023-03-31T18:05:09;3.57;;;1.40;;
9108;SDS011;4590;51.462;6.692;2023-03-31T18:07:35;3.00;;;1.45;;
9108;SDS011;4590;51.462;6.692;2023-03-31T18:10:01;2.22;;;0.95;;
9108;SDS011;4590;51.462;6.692;2023-03-31T18:12:29;4.63;;;1.88;;
9108;SDS011;4590;51.462;6.692;2023-03-31T18:14:55;4.30;;;1.30;;
9108;SDS011;4590;51.462;6.692;2023-03-31T18:19:56;4.45;;;1.40;;
9108;SDS011;4590;51.462;6.692;2023-03-31T18:22:23;2.60;;;0.80;;
9108;SDS011;4590;51.462;6.692;2023-03-31T18:24:49;2.65;;;0.98;;
9108;SDS011;4590;51.462;6.692;2023-03-31T18:27:14;4.57;;;1.63;;
9108;SDS011;4590;51.462;6.692;2023-03-31T18:29:40;3.75;;;1.45;;
9108;SDS011;4590;51.462;6.692;2023-03-31T18:32:05;4.23;;;1.53;;
9108;SDS011;4590;51.462;6.692;2023-03-31T18:34:31;2.80;;;1.00;;
9108;SDS011;4590;51.462;6.692;2023-03-31T18:36:57;2.75;;;1.40;;
9108;SDS011;4590;51.462;6.692;2023-03-31T18:39:23;5.20;;;1.57;;
9108;SDS011;4590;51.462;6.692;2023-03-31T18:41:48;5.53;;;1.40;;
9108;SDS011;4590;51.462;6.692;2023-03-31T18:44:13;3.23;;;1.00;;
9108;SDS011;4590;51.462;6.692;2023-03-31T18:46:42;5.05;;;1.20;;
9108;SDS011;4590;51.462;6.692;2023-03-31T18:49:08;2.33;;;0.80;;
9108;SDS011;4590;51.462;6.692;2023-03-31T18:51:34;3.70;;;1.10;;
9108;SDS011;4590;51.462;6.692;2023-03-31T18:53:59;3.93;;;1.17;;
9108;SDS011;4590;51.462;6.692;2023-03-31T18:56:24;4.67;;;2.70;;
9108;SDS011;4590;51.462;6.692;2023-03-31T18:58:50;9.40;;;3.37;;
9108;SDS011;4590;51.462;6.692;2023-03-31T19:01:15;6.88;;;2.85;;
9108;SDS011;4590;51.462;6.692;2023-03-31T19:03:41;3.90;;;2.07;;
9108;SDS011;4590;51.462;6.692;2023-03-31T19:06:08;5.15;;;2.40;;
9108;SDS011;4590;51.462;6.692;2023-03-31T19:08:34;7.80;;;2.65;;
9108;SDS011;4590;51.462;6.692;2023-03-31T19:11:09;6.03;;;2.90;;